Time;durP1;ratioP1;P1;durP2;ratioP2;P2;SDS_P1;SDS_P2;PMS_P1;PMS_P2;Temp;Humidity;BMP_temperature;BMP_pressure;BME280_temperature;BME280_humidity;BME280_pressure;Samples;Min_cycle;Max_cycle;Signal;HPM_P1;HPM_P2
2022/10/19 00:01:22;;;;;;;16.73;4.90;;;;;;;9.00;100.00;102786.47;5238324;28;20029;-71
2022/10/19 00:03:55;;;;;;;14.43;5.00;;;;;;;9.12;100.00;102793.19;5236692;28;20042;-71
2022/10/19 00:06:29;;;;;;;8.97;4.87;;;;;;;9.10;100.00;102784.50;5237069;28;20026;-71
2022/10/19 00:09:07;;;;;;;14.45;5.30;;;;;;;9.03;100.00;102778.56;5238280;28;20036;-71
2022/10/19 00:11:41;;;;;;;13.43;5.30;;;;;;;8.94;100.00;102779.63;5237376;28;20537;-71
2022/10/19 00:14:16;;;;;;;15.23;5.32;;;;;;;8.91;100.00;102778.81;5237381;28;20553;-72
2022/10/19 00:16:50;;;;;;;16.23;5.30;;;;;;;8.83;100.00;102773.78;5237832;28;20108;-72
2022/10/19 00:19:25;;;;;;;16.00;5.80;;;;;;;8.87;100.00;102787.59;5236821;28;20026;-72
2022/10/19 00:21:56;;;;;;;14.45;5.72;;;;;;;8.77;100.00;102784.34;5237183;28;20026;-72
2022/10/19 00:24:27;;;;;;;15.50;5.77;;;;;;;8.78;100.00;102773.84;5237329;28;20044;-72
2022/10/19 00:26:58;;;;;;;8.87;5.20;;;;;;;8.89;100.00;102776.25;5237694;28;20025;-72
2022/10/19 00:29:30;;;;;;;13.07;4.83;;;;;;;8.73;100.00;102765.25;5237354;28;20032;-72
2022/10/19 00:32:01;;;;;;;16.13;5.80;;;;;;;8.73;100.00;102773.09;5237645;28;20035;-72
2022/10/19 00:34:32;;;;;;;16.20;5.00;;;;;;;8.78;100.00;102770.41;5237274;28;20032;-71
2022/10/19 00:37:04;;;;;;;14.33;5.60;;;;;;;8.75;100.00;102770.44;5236397;28;20037;-71
2022/10/19 00:39:35;;;;;;;12.50;5.43;;;;;;;8.75;100.00;102765.22;5237670;28;20024;-71
2022/10/19 00:42:11;;;;;;;13.47;4.73;;;;;;;8.91;100.00;102766.63;5236275;28;20116;-72
2022/10/19 00:44:42;;;;;;;13.03;5.13;;;;;;;8.77;100.00;102766.06;5215676;28;20572;-72
2022/10/19 00:47:14;;;;;;;11.23;4.70;;;;;;;8.82;100.00;102767.69;5217128;28;20026;-72
2022/10/19 00:49:45;;;;;;;11.47;5.57;;;;;;;8.73;100.00;102765.25;5216040;28;20026;-72
2022/10/19 00:52:19;;;;;;;13.17;5.80;;;;;;;8.84;100.00;102765.03;5215788;28;20549;-71
2022/10/19 00:54:54;;;;;;;17.77;5.53;;;;;;;8.63;100.00;102766.34;5215745;28;20073;-72
2022/10/19 00:57:28;;;;;;;11.45;5.43;;;;;;;8.77;100.00;102771.28;5215727;28;20084;-71
2022/10/19 01:00:02;;;;;;;;;;;;;;;9.06;100.00;102780.22;5217062;28;20026;-71
2022/10/19 01:02:34;;;;;;;8.40;4.97;;;;;;;8.85;100.00;102777.19;5215742;28;19948;-71
2022/10/19 01:05:06;;;;;;;11.70;5.17;;;;;;;8.73;100.00;102767.03;5216052;28;20485;-72
2022/10/19 01:07:37;;;;;;;12.93;5.13;;;;;;;8.64;100.00;102771.53;5215444;28;20109;-72
2022/10/19 01:10:09;;;;;;;10.47;5.63;;;;;;;8.59;100.00;102768.16;5216782;28;20096;-72
2022/10/19 01:13:01;;;;;;;10.87;5.50;;;;;;;8.57;100.00;102780.41;5216879;28;20030;-72
2022/10/19 01:15:40;;;;;;;12.73;5.80;;;;;;;8.52;100.00;102779.59;5214982;28;20025;-72
2022/10/19 01:18:19;;;;;;;11.60;5.20;;;;;;;8.59;100.00;102762.94;5215618;28;20500;-73
2022/10/19 01:21:18;;;;;;;12.77;5.70;;;;;;;8.72;100.00;102766.16;5215419;28;20033;-73
2022/10/19 01:24:27;;;;;;;14.80;5.10;;;;;;;8.62;100.00;102777.69;5215683;28;20025;-73
2022/10/19 01:27:20;;;;;;;15.30;5.63;;;;;;;8.45;100.00;102781.44;5214990;28;20030;-72
2022/10/19 01:29:57;;;;;;;17.03;5.83;;;;;;;8.35;100.00;102768.59;5215542;28;20127;-71
2022/10/19 01:32:53;;;;;;;14.47;5.90;;;;;;;8.45;100.00;102768.38;5216364;28;20076;-71
2022/10/19 01:36:14;;;;;;;11.20;5.70;;;;;;;8.55;100.00;102769.09;5216256;28;20033;-72
2022/10/19 01:38:55;;;;;;;10.83;4.97;;;;;;;8.47;100.00;102767.47;5198960;28;20388;-71
2022/10/19 01:41:46;;;;;;;10.97;6.43;;;;;;;8.46;100.00;102767.53;5216263;28;20033;-71
2022/10/19 01:44:24;;;;;;;12.83;5.33;;;;;;;8.32;100.00;102773.88;5216845;28;20026;-72
2022/10/19 01:47:01;;;;;;;14.10;5.80;;;;;;;8.33;100.00;102761.66;5232375;28;20084;-71
2022/10/19 01:49:41;;;;;;;11.80;5.00;;;;;;;8.36;100.00;102766.81;5217651;28;20034;-71
2022/10/19 01:52:16;;;;;;;14.20;5.70;;;;;;;8.38;100.00;102772.88;5214238;28;20034;-72
2022/10/19 01:54:52;;;;;;;12.70;5.07;;;;;;;8.43;100.00;102768.44;5217035;28;20045;-71
2022/10/19 01:57:38;;;;;;;11.63;5.43;;;;;;;8.42;100.00;102766.72;5231691;28;20022;-72
2022/10/19 02:00:12;;;;;;;12.13;4.90;;;;;;;8.20;100.00;102764.50;5216161;28;20029;-72
2022/10/19 02:02:49;;;;;;;8.93;5.05;;;;;;;8.37;100.00;102752.88;5215858;28;20050;-73
2022/10/19 02:05:26;;;;;;;17.50;5.37;;;;;;;8.31;100.00;102750.38;5215115;28;20103;-73
2022/10/19 02:08:06;;;;;;;13.27;5.40;;;;;;;8.22;100.00;102747.06;5215001;28;20030;-70
2022/10/19 02:10:40;;;;;;;10.37;4.90;;;;;;;8.27;100.00;102743.53;5215438;28;20076;-72
2022/10/19 02:13:14;;;;;;;11.82;4.90;;;;;;;8.21;100.00;102740.13;5215275;28;20056;-71
2022/10/19 02:15:50;;;;;;;11.32;5.43;;;;;;;8.27;100.00;102727.84;5215148;28;20021;-72
2022/10/19 02:18:33;;;;;;;8.53;5.27;;;;;;;8.27;100.00;102730.47;5215245;28;20113;-71
2022/10/19 02:21:05;;;;;;;13.43;5.40;;;;;;;8.26;100.00;102731.34;5213971;28;20029;-72
2022/10/19 02:23:36;;;;;;;13.73;5.50;;;;;;;8.17;100.00;102707.13;5215039;28;20721;-71
2022/10/19 02:26:08;;;;;;;13.43;5.40;;;;;;;8.11;100.00;102717.72;5215423;28;20126;-71
2022/10/19 02:28:39;;;;;;;12.23;4.90;;;;;;;8.15;100.00;102721.13;5214751;28;20547;-72
2022/10/19 02:31:11;;;;;;;13.57;5.23;;;;;;;8.08;100.00;102723.84;5215070;28;20481;-72
2022/10/19 02:33:43;;;;;;;9.07;4.47;;;;;;;8.18;100.00;102714.09;5214090;28;20101;-72
2022/10/19 02:36:14;;;;;;;13.30;5.87;;;;;;;8.14;100.00;102712.44;5213486;28;20451;-73
2022/10/19 02:38:45;;;;;;;13.40;5.57;;;;;;;7.85;100.00;102706.00;5214914;28;20105;-73
2022/10/19 02:41:22;;;;;;;11.20;5.23;;;;;;;7.86;100.00;102703.38;5214494;28;20100;-72
2022/10/19 02:44:03;;;;;;;13.00;5.50;;;;;;;8.04;100.00;102708.28;5213317;28;20029;-71
2022/10/19 02:46:41;;;;;;;7.97;4.63;;;;;;;7.89;100.00;102701.59;5214199;28;20499;-71
2022/10/19 02:49:13;;;;;;;9.53;4.90;;;;;;;7.82;100.00;102700.88;5214327;28;20048;-72
2022/10/19 02:52:04;;;;;;;12.73;5.73;;;;;;;7.90;100.00;102696.34;5228679;28;20044;-72
2022/10/19 02:54:36;;;;;;;14.47;4.87;;;;;;;7.81;100.00;102697.38;5213771;28;20037;-72
2022/10/19 02:57:22;;;;;;;10.37;4.67;;;;;;;7.83;100.00;102703.44;5213872;28;20152;-72
2022/10/19 02:59:53;;;;;;;13.17;5.50;;;;;;;7.74;100.00;102706.19;5214179;28;20033;-72
2022/10/19 03:02:25;;;;;;;12.87;4.90;;;;;;;7.69;100.00;102695.00;5213049;28;20105;-72
2022/10/19 03:04:56;;;;;;;15.00;4.90;;;;;;;7.63;100.00;102699.44;5228941;28;20398;-71
2022/10/19 03:07:28;;;;;;;8.67;4.73;;;;;;;7.58;100.00;102688.22;5213779;28;20025;-71
2022/10/19 03:09:59;;;;;;;9.87;4.73;;;;;;;7.73;100.00;102689.69;5214047;28;20029;-71
2022/10/19 03:12:30;;;;;;;13.10;5.10;;;;;;;7.68;100.00;102701.09;5214142;28;20481;-71
2022/10/19 03:15:02;;;;;;;20.53;5.60;;;;;;;7.62;100.00;102699.47;5213742;28;20072;-71
2022/10/19 03:17:34;;;;;;;6.90;4.53;;;;;;;7.69;100.00;102706.28;5214360;28;20030;-71
2022/10/19 03:20:06;;;;;;;13.30;4.70;;;;;;;7.62;100.00;102709.88;5213149;28;20032;-72
2022/10/19 03:22:37;;;;;;;12.43;5.83;;;;;;;7.82;100.00;102704.31;5213460;28;20018;-71
2022/10/19 03:25:08;;;;;;;12.37;4.43;;;;;;;7.72;100.00;102715.78;5213713;28;20026;-72
2022/10/19 03:27:40;;;;;;;11.43;4.60;;;;;;;7.56;100.00;102689.97;5213831;28;20065;-72
2022/10/19 03:30:11;;;;;;;7.63;3.80;;;;;;;7.58;100.00;102698.66;5228273;28;20026;-72
2022/10/19 03:32:42;;;;;;;9.57;4.63;;;;;;;7.45;100.00;102703.19;5213721;28;20072;-73
2022/10/19 03:35:14;;;;;;;10.60;5.10;;;;;;;7.55;100.00;102697.84;5212832;28;20030;-72
2022/10/19 03:37:45;;;;;;;9.33;3.73;;;;;;;7.43;100.00;102705.00;5214052;28;20528;-72
2022/10/19 03:40:16;;;;;;;17.67;5.37;;;;;;;7.29;100.00;102701.75;5213650;28;20022;-72
2022/10/19 03:42:47;;;;;;;11.80;4.73;;;;;;;7.30;100.00;102688.69;5213086;28;20125;-72
2022/10/19 03:45:19;;;;;;;13.73;4.10;;;;;;;7.31;100.00;102700.84;5215824;28;20461;-72
2022/10/19 03:47:51;;;;;;;11.73;4.90;;;;;;;7.27;100.00;102696.56;5234035;28;20494;-72
2022/10/19 03:50:22;;;;;;;9.03;4.77;;;;;;;7.30;100.00;102700.84;5233098;28;20033;-72
2022/10/19 03:52:54;;;;;;;11.40;4.70;;;;;;;7.22;100.00;102699.25;5233739;28;20113;-72
2022/10/19 03:55:25;;;;;;;9.53;4.60;;;;;;;7.20;100.00;102706.22;5228975;28;20029;-73
2022/10/19 03:57:56;;;;;;;7.00;4.60;;;;;;;7.23;100.00;102702.69;5213477;28;20033;-72
2022/10/19 04:00:28;;;;;;;8.83;3.97;;;;;;;7.29;100.00;102702.59;5213022;28;20058;-72
2022/10/19 04:02:59;;;;;;;9.43;4.13;;;;;;;7.14;100.00;102708.91;5212986;28;20045;-73
2022/10/19 04:05:30;;;;;;;7.97;4.43;;;;;;;7.17;100.00;102706.28;5213321;28;20103;-73
2022/10/19 04:08:01;;;;;;;11.80;4.47;;;;;;;7.27;100.00;102714.78;5212757;28;20034;-72
2022/10/19 04:10:33;;;;;;;9.87;4.37;;;;;;;7.22;100.00;102707.06;5213691;28;20018;-73
2022/10/19 04:13:04;;;;;;;11.23;4.63;;;;;;;7.09;100.00;102700.28;5212810;28;20038;-72
2022/10/19 04:15:35;;;;;;;9.50;4.63;;;;;;;7.08;100.00;102706.41;5213770;28;20100;-73
2022/10/19 04:18:07;;;;;;;9.00;3.97;;;;;;;7.11;100.00;102699.41;5213724;28;20034;-72
2022/10/19 04:20:41;;;;;;;14.30;5.17;;;;;;;6.97;100.00;102690.91;5212482;28;20397;-71
2022/10/19 04:23:12;;;;;;;8.35;4.50;;;;;;;7.23;100.00;102700.06;5211991;28;20026;-71
2022/10/19 04:25:44;;;;;;;13.97;4.93;;;;;;;7.21;100.00;102700.09;5212760;28;20026;-71
2022/10/19 04:28:15;;;;;;;12.70;4.87;;;;;;;7.16;100.00;102695.88;5213447;28;20030;-72
2022/10/19 04:30:46;;;;;;;12.83;5.10;;;;;;;7.14;100.00;102701.09;5214324;28;20056;-71
2022/10/19 04:33:21;;;;;;;15.90;5.03;;;;;;;7.07;100.00;102696.88;5217261;28;20037;-72
2022/10/19 04:36:03;;;;;;;14.90;5.38;;;;;;;7.14;100.00;102694.13;5214838;28;20102;-73
2022/10/19 04:38:36;;;;;;;10.17;4.70;;;;;;;6.99;100.00;102684.81;5235989;28;20032;-72
2022/10/19 04:41:13;;;;;;;12.07;4.73;;;;;;;7.02;100.00;102689.09;5257965;28;20032;-73
2022/10/19 04:43:45;;;;;;;10.20;5.00;;;;;;;7.10;100.00;102696.81;5242586;28;20064;-73
2022/10/19 04:46:18;;;;;;;7.23;4.60;;;;;;;7.08;100.00;102685.56;5228823;28;20464;-73
2022/10/19 04:48:50;;;;;;;10.20;5.30;;;;;;;7.00;100.00;102681.31;5236004;28;20038;-72
2022/10/19 04:51:23;;;;;;;11.10;5.40;;;;;;;6.96;100.00;102679.66;5253304;28;20033;-72
2022/10/19 04:53:57;;;;;;;14.40;5.70;;;;;;;6.96;100.00;102681.41;5257589;28;20155;-72
2022/10/19 04:56:29;;;;;;;10.68;4.55;;;;;;;6.95;100.00;102687.47;5241554;28;20033;-72
2022/10/19 04:59:01;;;;;;;13.57;5.03;;;;;;;7.00;100.00;102691.72;5236914;28;20503;-72
2022/10/19 05:01:32;;;;;;;12.77;5.00;;;;;;;6.90;100.00;102697.97;5238807;28;20030;-72
2022/10/19 05:04:03;;;;;;;14.47;5.50;;;;;;;6.90;100.00;102695.34;5256861;28;20168;-72
2022/10/19 05:06:34;;;;;;;8.17;5.00;;;;;;;6.97;100.00;102696.13;5256718;28;20029;-72
2022/10/19 05:09:06;;;;;;;10.73;5.07;;;;;;;7.00;100.00;102696.06;5257151;28;20100;-72
2022/10/19 05:11:37;;;;;;;11.80;5.13;;;;;;;6.74;100.00;102694.72;5258008;28;20029;-72
2022/10/19 05:14:08;;;;;;;9.27;5.17;;;;;;;6.74;100.00;102687.75;5256388;28;20391;-72
2022/10/19 05:16:40;;;;;;;11.10;5.90;;;;;;;6.97;100.00;102686.56;5256774;28;20070;-72
2022/10/19 05:19:14;;;;;;;13.27;4.67;;;;;;;6.99;100.00;102689.16;5257899;28;20033;-71
2022/10/19 05:21:45;;;;;;;11.45;5.70;;;;;;;6.87;100.00;102685.00;5256639;28;20471;-72
2022/10/19 05:24:16;;;;;;;12.70;5.90;;;;;;;6.81;100.00;102680.72;5259769;28;20022;-71
2022/10/19 05:26:48;;;;;;;8.87;5.60;;;;;;;6.80;100.00;102678.13;5259243;28;20025;-70
2022/10/19 05:29:19;;;;;;;13.13;6.07;;;;;;;6.90;100.00;102680.59;5258665;28;20036;-72
2022/10/19 05:31:50;;;;;;;11.43;5.83;;;;;;;6.82;100.00;102669.44;5258442;28;20032;-71
2022/10/19 05:34:22;;;;;;;14.57;5.93;;;;;;;6.75;100.00;102663.47;5257568;28;20037;-71
2022/10/19 05:36:54;;;;;;;17.67;5.97;;;;;;;6.86;100.00;102662.44;5254794;28;20120;-70
2022/10/19 05:39:25;;;;;;;12.53;5.83;;;;;;;6.74;100.00;102660.84;5243489;28;20048;-72
2022/10/19 05:41:57;;;;;;;15.57;6.37;;;;;;;6.85;100.00;102666.78;5235813;28;20029;-73
2022/10/19 05:44:28;;;;;;;13.20;5.77;;;;;;;6.73;100.00;102665.22;5236781;28;20033;-72
2022/10/19 05:46:59;;;;;;;13.27;5.77;;;;;;;6.71;100.00;102660.91;5235907;28;20116;-73
2022/10/19 05:49:30;;;;;;;13.27;7.10;;;;;;;6.68;100.00;102659.22;5236371;28;20036;-72
2022/10/19 05:52:02;;;;;;;11.67;5.90;;;;;;;6.69;100.00;102660.94;5234500;28;20132;-72
2022/10/19 05:54:34;;;;;;;11.53;6.60;;;;;;;6.72;100.00;102665.25;5235965;28;20030;-73
2022/10/19 05:57:06;;;;;;;12.20;6.23;;;;;;;6.72;100.00;102666.09;5235999;28;20465;-71
2022/10/19 05:59:37;;;;;;;11.90;6.50;;;;;;;6.69;100.00;102662.66;5227658;28;20030;-72
2022/10/19 06:02:12;;;;;;;12.90;6.17;;;;;;;6.68;100.00;102661.81;5227433;28;20048;-72
2022/10/19 06:04:49;;;;;;;15.70;7.13;;;;;;;6.59;100.00;102660.19;5224423;28;20046;-72
2022/10/19 06:07:20;;;;;;;11.80;6.47;;;;;;;6.65;100.00;102654.03;5222058;28;20128;-73
2022/10/19 06:09:51;;;;;;;9.70;5.93;;;;;;;6.65;100.00;102659.22;5225516;28;20025;-71
2022/10/19 06:12:22;;;;;;;11.73;6.50;;;;;;;6.69;100.00;102653.13;5221946;28;20381;-72
2022/10/19 06:14:54;;;;;;;15.23;7.37;;;;;;;6.63;100.00;102650.59;5220974;28;20042;-72
2022/10/19 06:17:27;;;;;;;16.40;6.87;;;;;;;6.67;100.00;102647.06;5214420;28;20030;-72
2022/10/19 06:19:59;;;;;;;13.77;6.63;;;;;;;6.57;100.00;102646.34;5214360;28;20464;-71
2022/10/19 06:22:30;;;;;;;17.13;7.70;;;;;;;6.45;100.00;102639.56;5217557;28;20284;-71
2022/10/19 06:25:01;;;;;;;15.93;7.70;;;;;;;6.61;100.00;102636.75;5215188;28;20112;-72
2022/10/19 06:27:33;;;;;;;15.07;7.13;;;;;;;6.60;100.00;102642.81;5215738;28;20084;-72
2022/10/19 06:30:05;;;;;;;21.07;7.90;;;;;;;6.60;100.00;102642.81;5215011;28;20101;-71
2022/10/19 06:32:36;;;;;;;16.33;8.40;;;;;;;6.62;100.00;102654.94;5214588;28;20060;-71
2022/10/19 06:35:07;;;;;;;16.00;8.50;;;;;;;6.50;100.00;102649.91;5212917;28;20548;-72
2022/10/19 06:37:38;;;;;;;15.23;7.67;;;;;;;6.63;100.00;102658.41;5213300;28;20372;-72
2022/10/19 06:40:10;;;;;;;17.47;8.20;;;;;;;6.62;100.00;102656.69;5214350;28;20468;-72
2022/10/19 06:42:41;;;;;;;11.43;7.90;;;;;;;6.66;100.00;102666.19;5212445;28;20029;-72
2022/10/19 06:45:13;;;;;;;18.90;7.40;;;;;;;6.69;100.00;102652.25;5214214;28;20109;-72
2022/10/19 06:47:44;;;;;;;13.33;7.33;;;;;;;6.74;100.00;102663.44;5214416;28;20037;-72
2022/10/19 06:50:15;;;;;;;23.27;7.37;;;;;;;6.71;100.00;102664.38;5213612;28;20109;-72
2022/10/19 06:52:47;;;;;;;12.30;7.47;;;;;;;6.80;100.00;102657.31;5214170;28;20084;-72
2022/10/19 06:55:18;;;;;;;16.87;8.43;;;;;;;6.71;100.00;102653.97;5213561;28;20106;-72
2022/10/19 06:57:49;;;;;;;9.70;6.83;;;;;;;6.73;100.00;102660.00;5214083;28;20038;-74
2022/10/19 07:00:22;;;;;;;15.27;8.23;;;;;;;6.77;100.00;102653.84;5240041;28;20094;-72
2022/10/19 07:02:54;;;;;;;14.60;9.20;;;;;;;6.82;100.00;102659.03;5235221;28;20050;-71
2022/10/19 07:05:25;;;;;;;14.50;7.97;;;;;;;6.84;100.00;102657.22;5233585;28;20037;-72
2022/10/19 07:07:57;;;;;;;14.90;7.77;;;;;;;6.81;100.00;102648.63;5234512;28;20113;-73
2022/10/19 07:10:28;;;;;;;13.40;7.53;;;;;;;6.95;100.00;102651.88;5234284;28;20024;-74
2022/10/19 07:12:59;;;;;;;12.77;7.93;;;;;;;6.94;100.00;102657.09;5234556;28;20030;-75
2022/10/19 07:15:31;;;;;;;15.03;8.00;;;;;;;6.96;100.00;102658.81;5234629;28;20030;-73
2022/10/19 07:18:02;;;;;;;13.13;8.50;;;;;;;7.07;100.00;102665.59;5233926;28;20543;-74
2022/10/19 07:20:33;;;;;;;11.93;7.30;;;;;;;7.02;100.00;102657.84;5232097;28;20030;-71
2022/10/19 07:23:05;;;;;;;17.17;7.60;;;;;;;7.05;100.00;102662.16;5233979;28;20033;-70
2022/10/19 07:25:37;;;;;;;11.70;7.50;;;;;;;7.11;100.00;102646.41;5237991;28;20469;-71
2022/10/19 07:28:08;;;;;;;15.47;8.20;;;;;;;7.23;100.00;102671.41;5233099;28;20041;-72
2022/10/19 07:30:39;;;;;;;15.37;8.27;;;;;;;7.30;100.00;102661.75;5233945;28;20033;-72
2022/10/19 07:33:11;;;;;;;13.20;7.60;;;;;;;7.40;100.00;102671.13;5234514;28;20029;-73
2022/10/19 07:35:44;;;;;;;12.93;8.07;;;;;;;7.45;100.00;102665.84;5232865;28;20033;-72
2022/10/19 07:38:16;;;;;;;8.85;6.72;;;;;;;7.56;100.00;102657.81;5234258;28;20037;-72
2022/10/19 07:40:47;;;;;;;13.30;7.33;;;;;;;7.59;100.00;102653.41;5237709;28;20022;-73
2022/10/19 07:43:18;;;;;;;12.87;7.97;;;;;;;7.67;100.00;102655.91;5235484;28;20018;-71
2022/10/19 07:45:57;;;;;;;12.93;7.40;;;;;;;7.72;100.00;102650.59;5234185;28;20045;-72
2022/10/19 07:48:29;;;;;;;17.77;7.90;;;;;;;7.72;100.00;102648.84;5233801;28;20033;-72
2022/10/19 07:51:02;;;;;;;16.03;9.93;;;;;;;7.84;100.00;102646.88;5233110;28;20038;-72
2022/10/19 07:53:35;;;;;;;11.80;7.23;;;;;;;7.87;100.00;102646.84;5233581;28;20056;-72
2022/10/19 07:56:08;;;;;;;13.83;8.50;;;;;;;7.96;100.00;102645.78;5233576;28;20112;-72
2022/10/19 07:58:39;;;;;;;11.97;8.63;;;;;;;7.97;100.00;102637.97;5232688;28;20042;-72
2022/10/19 08:01:14;;;;;;;14.23;8.23;;;;;;;8.08;100.00;102637.72;5233332;28;20411;-72
2022/10/19 08:03:47;;;;;;;14.50;7.43;;;;;;;8.16;100.00;102634.09;5233523;28;20092;-72
2022/10/19 08:06:19;;;;;;;13.97;7.73;;;;;;;8.28;100.00;102638.19;5234910;28;20033;-72
2022/10/19 08:08:51;;;;;;;13.33;7.37;;;;;;;8.29;100.00;102627.72;5237407;28;20048;-72
2022/10/19 08:11:32;;;;;;;16.73;7.87;;;;;;;8.41;100.00;102637.03;5237665;28;20030;-72
2022/10/19 08:14:06;;;;;;;11.83;8.17;;;;;;;8.47;100.00;102636.91;5235894;28;20610;-71
2022/10/19 08:16:43;;;;;;;14.18;7.57;;;;;;;8.58;100.00;102644.56;5238245;28;20103;-71
2022/10/19 08:19:15;;;;;;;14.67;7.70;;;;;;;8.65;100.00;102633.94;5236820;28;20784;-72
2022/10/19 08:21:46;;;;;;;11.97;7.47;;;;;;;8.66;100.00;102631.31;5236270;28;20034;-72
2022/10/19 08:24:19;;;;;;;17.23;7.93;;;;;;;8.77;100.00;102631.06;5238806;28;20017;-71
2022/10/19 08:26:50;;;;;;;17.83;8.00;;;;;;;8.80;100.00;102617.06;5237882;28;20040;-72
2022/10/19 08:29:22;;;;;;;15.67;7.33;;;;;;;8.86;100.00;102609.09;5236032;28;20029;-73
2022/10/19 08:31:53;;;;;;;14.67;6.63;;;;;;;8.92;100.00;102606.31;5237520;28;20024;-72
2022/10/19 08:34:25;;;;;;;18.87;8.13;;;;;;;9.02;100.00;102606.09;5236848;28;20037;-71
2022/10/19 08:36:56;;;;;;;17.33;8.03;;;;;;;9.08;100.00;102598.09;5237070;28;20025;-71
2022/10/19 08:39:28;;;;;;;18.23;7.63;;;;;;;9.16;100.00;102596.13;5238062;28;20034;-72
2022/10/19 08:42:02;;;;;;;14.83;6.97;;;;;;;9.24;100.00;102593.34;5236601;28;20033;-71
2022/10/19 08:45:01;;;;;;;12.43;7.20;;;;;;;9.41;100.00;102592.88;5237089;28;20055;-71
2022/10/19 08:47:56;;;;;;;15.30;5.87;;;;;;;9.62;100.00;102590.59;5239630;28;20033;-71
2022/10/19 08:50:36;;;;;;;12.30;6.80;;;;;;;9.98;100.00;102586.13;5238209;28;20118;-70
2022/10/19 08:53:46;;;;;;;16.60;6.93;;;;;;;11.77;100.00;102582.06;5238006;28;20036;-71
2022/10/19 08:56:26;;;;;;;18.60;4.67;;;;;;;13.47;100.00;102577.06;5230705;28;20044;-72
2022/10/19 08:59:20;;;;;;;6.97;4.00;;;;;;;15.34;100.00;102591.06;5240810;28;20025;-72
2022/10/19 09:01:55;;;;;;;14.05;5.32;;;;;;;16.29;100.00;102579.84;5239055;28;20075;-71
2022/10/19 09:04:40;;;;;;;9.13;4.20;;;;;;;17.76;96.40;102576.53;5237020;28;20435;-71
2022/10/19 09:07:14;;;;;;;9.03;3.23;;;;;;;18.73;86.83;102590.72;5236035;28;20048;-71
2022/10/19 09:09:57;;;;;;;;;;;;;;;20.73;100.00;102578.50;5237048;28;20024;-72
2022/10/19 09:12:52;;;;;;;10.07;3.83;;;;;;;20.39;70.76;102553.47;5237417;28;20338;-72
2022/10/19 09:15:33;;;;;;;11.07;3.78;;;;;;;20.28;60.91;102574.72;5236101;28;20028;-72
2022/10/19 09:18:21;;;;;;;8.60;3.13;;;;;;;20.62;60.55;102574.84;5235231;28;20484;-72
2022/10/19 09:21:11;;;;;;;13.68;3.42;;;;;;;21.56;62.47;102591.69;5235334;28;20033;-71
2022/10/19 09:23:49;;;;;;;9.75;3.42;;;;;;;20.99;57.88;102597.84;5236583;28;20036;-72
2022/10/19 09:26:26;;;;;;;12.63;3.30;;;;;;;20.78;56.56;102595.81;5236419;28;20043;-72
2022/10/19 09:29:20;;;;;;;8.73;3.03;;;;;;;21.49;57.83;102595.78;5236239;28;20033;-72
2022/10/19 09:31:55;;;;;;;8.45;2.90;;;;;;;20.30;53.65;102589.59;5236524;28;20515;-72
2022/10/19 09:34:36;;;;;;;8.40;2.47;;;;;;;20.92;57.30;102581.47;5235884;28;20022;-72
2022/10/19 09:37:11;;;;;;;9.63;2.60;;;;;;;20.91;55.10;102581.56;5236959;28;20645;-73
2022/10/19 09:39:43;;;;;;;10.30;2.50;;;;;;;21.44;52.77;102585.50;5236240;28;20037;-73
2022/10/19 09:42:31;;;;;;;11.38;2.50;;;;;;;21.44;54.79;102576.66;5236253;28;20467;-74
2022/10/19 09:45:18;;;;;;;9.48;3.10;;;;;;;21.60;53.29;102578.97;5235972;28;20475;-73
2022/10/19 09:47:49;;;;;;;7.53;2.47;;;;;;;21.16;50.82;102566.38;5236310;28;20467;-73
2022/10/19 09:50:23;;;;;;;11.52;3.03;;;;;;;20.54;51.92;102578.06;5235472;28;20025;-73
2022/10/19 09:53:02;;;;;;;9.82;2.95;;;;;;;19.59;55.44;102567.16;5236239;28;20026;-72
2022/10/19 09:55:46;;;;;;;9.60;2.80;;;;;;;19.12;57.76;102558.06;5234376;28;20055;-72
2022/10/19 09:58:19;;;;;;;9.70;2.60;;;;;;;17.95;57.85;102554.16;5236051;28;20338;-71
2022/10/19 10:00:53;;;;;;;13.15;3.63;;;;;;;17.47;61.53;102554.53;5236165;28;20538;-72
2022/10/19 10:03:39;;;;;;;7.40;2.47;;;;;;;17.51;62.70;102540.13;5235873;28;20493;-72
2022/10/19 10:06:16;;;;;;;10.57;2.45;;;;;;;17.13;63.40;102539.78;5234648;28;20037;-72
2022/10/19 10:08:51;;;;;;;7.80;2.78;;;;;;;17.03;62.99;102535.94;5234294;28;20104;-73
2022/10/19 10:11:25;;;;;;;12.77;3.30;;;;;;;16.63;63.64;102545.34;5235814;28;20036;-73
2022/10/19 10:14:03;;;;;;;9.03;3.00;;;;;;;16.89;62.20;102540.28;5235218;28;20112;-73
2022/10/19 10:16:35;;;;;;;10.43;3.40;;;;;;;16.46;64.42;102548.94;5234243;28;20116;-73
2022/10/19 10:19:11;;;;;;;11.43;3.13;;;;;;;16.35;64.15;102551.34;5234291;28;20562;-72
2022/10/19 10:21:48;;;;;;;7.40;2.73;;;;;;;16.40;64.74;102536.09;5235153;28;20034;-74
2022/10/19 10:24:28;;;;;;;10.17;2.60;;;;;;;16.34;66.41;102555.78;5237190;28;20104;-73
2022/10/19 10:27:02;;;;;;;11.00;4.67;;;;;;;16.30;64.53;102549.81;5237732;28;20026;-75
2022/10/19 10:29:34;;;;;;;;;;;;;;;16.81;63.66;102548.66;5234273;28;20606;-74
2022/10/19 10:32:15;;;;;;;12.60;3.10;;;;;;;16.08;66.12;102534.34;5233946;28;19913;-74
2022/10/19 10:34:55;;;;;;;14.70;3.33;;;;;;;16.24;68.26;102538.75;5234457;28;20387;-73
2022/10/19 10:37:38;;;;;;;15.70;3.03;;;;;;;16.08;67.20;102534.34;5235848;28;20681;-74
2022/10/19 10:40:29;;;;;;;8.73;3.27;;;;;;;16.12;65.52;102525.31;5235112;28;20032;-74
2022/10/19 10:43:14;;;;;;;13.87;3.07;;;;;;;15.90;65.67;102537.03;5235493;28;20404;-73
2022/10/19 10:45:50;;;;;;;9.83;2.97;;;;;;;15.75;67.55;102519.41;5234018;28;20123;-74
2022/10/19 10:48:51;;;;;;;12.33;3.73;;;;;;;15.81;68.22;102513.78;5235646;28;20040;-73
2022/10/19 10:51:33;;;;;;;13.07;3.63;;;;;;;15.70;68.69;102523.16;5229381;28;20539;-73
2022/10/19 10:54:30;;;;;;;14.20;4.10;;;;;;;15.81;68.36;102516.44;5235414;28;20025;-73
2022/10/19 10:57:14;;;;;;;24.83;4.63;;;;;;;15.87;67.95;102517.84;5233586;28;20099;-73
2022/10/19 11:00:09;;;;;;;10.85;3.38;;;;;;;15.86;68.17;102501.19;5235566;28;20032;-76
2022/10/19 11:02:50;;;;;;;9.83;3.37;;;;;;;15.70;68.05;102509.94;5233071;28;20510;-72
2022/10/19 11:05:30;;;;;;;9.43;3.07;;;;;;;15.91;66.62;102499.13;5232528;28;20041;-72
2022/10/19 11:08:21;;;;;;;19.17;7.40;;;;;;;15.91;67.68;102493.84;5234616;28;20052;-72
2022/10/19 11:10:59;;;;;;;15.13;4.10;;;;;;;16.02;67.87;102487.13;5234838;28;20025;-71
2022/10/19 11:14:04;;;;;;;13.80;4.03;;;;;;;16.08;68.25;102486.75;5233604;28;20025;-71
2022/10/19 11:16:43;;;;;;;12.82;4.03;;;;;;;15.97;66.36;102487.34;5235039;28;20033;-72
2022/10/19 11:19:22;;;;;;;12.33;3.87;;;;;;;16.01;67.50;102482.75;5233631;28;20029;-71
2022/10/19 11:22:07;;;;;;;11.33;3.57;;;;;;;16.29;65.29;102470.59;5234530;28;20159;-71
2022/10/19 11:25:04;;;;;;;9.53;3.40;;;;;;;16.21;66.23;102476.34;5235047;28;20083;-71
2022/10/19 11:27:44;;;;;;;17.80;4.50;;;;;;;15.94;65.74;102461.97;5234495;28;20029;-72
2022/10/19 11:30:20;;;;;;;12.33;3.80;;;;;;;15.71;65.31;102457.97;5234812;28;20104;-72
2022/10/19 11:32:57;;;;;;;9.13;4.83;;;;;;;15.99;66.34;102452.94;5232768;28;20076;-75
2022/10/19 11:35:37;;;;;;;12.40;3.77;;;;;;;16.05;65.02;102445.53;5234030;28;20619;-74
2022/10/19 11:38:14;;;;;;;10.50;3.97;;;;;;;15.96;65.68;102443.38;5233622;28;20086;-74
2022/10/19 11:41:10;;;;;;;14.97;4.40;;;;;;;16.12;65.86;102435.44;5233906;28;20049;-72
2022/10/19 11:44:10;;;;;;;12.90;4.33;;;;;;;16.03;66.95;102402.47;5234559;28;20091;-74
2022/10/19 11:47:19;;;;;;;12.53;4.83;;;;;;;16.14;67.05;102408.91;5232306;28;20037;-74
2022/10/19 11:49:53;;;;;;;14.20;5.07;;;;;;;15.94;65.59;102395.91;5232780;28;20036;-73
2022/10/19 11:52:27;;;;;;;;;;;;;;;16.30;66.13;102390.38;5234713;28;20550;-73
2022/10/19 11:55:01;;;;;;;14.23;4.60;;;;;;;16.06;65.53;102385.56;5233850;28;20288;-74
2022/10/19 11:58:06;;;;;;;11.65;4.10;;;;;;;16.23;66.97;102383.75;5233166;28;20641;-73
2022/10/19 12:01:04;;;;;;;13.15;4.30;;;;;;;16.09;65.73;102377.50;5233311;28;20485;-74